»·PEaware :: N786RF KLAX-KSNA

N786RF :: KLAX-KSNA

FLIGHT INFORMATION

Flight Status: Arrived
Operator: Privately registered:
United States
More flights under this callsign
Pilot: Rao F. (13171)
Aircraft: CESSNA 172 SKYHAWK
(C172)
More flights by this aircraft type
Origin: KLAX Los Angeles Intl
United States
Destination: KSNA John Wayne-Orange Co
United States
More flights between these airports :: More routes between these airports
Route: SLI8 SLI
File this flight plan on PilotEdge
Remarks:
Altitude:
(Current/Filed)
4,000ft
Speed:
(Current/Filed)
90kts
Departed: 01-Aug-20 12:42 PM
Arrived: 01-Aug-20 01:31 PM
Distance/Time
Traveled:
31nm/0:49
Distance/Time
To Go:
Arrived

Flight Plot

Page will automatically refresh every two minutes.


Map Options




Map Legend


Flown Route
Filed Route
Departure Airport
Arrival Airport
Navaid (VOR, NDB)
Fix

Horizontal Profiles

Position Reports

Time Latitude Longitude Heading Altitude Ground
Speed
01-Aug-20 12:31 33.933014 -118.398494 333 119ft 0kts
01-Aug-20 12:32 33.933014 -118.398494 333 119ft 0kts
01-Aug-20 12:33 33.933014 -118.398494 333 119ft 0kts
01-Aug-20 12:34 33.933014 -118.398494 333 119ft 0kts
01-Aug-20 12:35 33.933986 -118.398117 357 114ft 7kts
01-Aug-20 12:36 33.934899 -118.394729 83 107ft 21kts
01-Aug-20 12:37 33.935766 -118.386240 84 102ft 21kts
01-Aug-20 12:38 33.936351 -118.382794 24 99ft 3kts
01-Aug-20 12:39 33.936407 -118.382771 11 99ft 0kts
01-Aug-20 12:40 33.937224 -118.384090 264 101ft 0kts
01-Aug-20 12:41 33.936986 -118.386409 263 102ft 58kts
01-Aug-20 12:42 33.933902 -118.410642 261 989ft 71kts
01-Aug-20 12:43 33.930226 -118.432614 263 1812ft 71kts
01-Aug-20 12:44 33.925880 -118.453445 165 2625ft 70kts
01-Aug-20 12:45 33.905688 -118.462867 197 3358ft 80kts
01-Aug-20 12:46 33.882630 -118.459336 171 3972ft 89kts
01-Aug-20 12:47 33.856675 -118.454353 172 4017ft 98kts
01-Aug-20 12:48 33.831839 -118.439897 142 3978ft 105kts
01-Aug-20 12:49 33.809481 -118.418013 140 3994ft 103kts
01-Aug-20 12:50 33.787452 -118.395408 139 3997ft 103kts
01-Aug-20 12:51 33.765101 -118.373437 144 3999ft 103kts
01-Aug-20 12:52 33.742204 -118.352058 137 3999ft 104kts
01-Aug-20 12:53 33.722074 -118.327294 129 4004ft 103kts
01-Aug-20 12:54 33.709637 -118.296855 101 3973ft 106kts
01-Aug-20 12:55 33.704166 -118.262275 101 3980ft 104kts
01-Aug-20 12:56 33.699448 -118.227917 99 3985ft 103kts
01-Aug-20 12:57 33.700628 -118.194308 54 3963ft 105kts
01-Aug-20 12:58 33.716414 -118.165296 59 3979ft 104kts
01-Aug-20 12:59 33.730357 -118.139395 56 3990ft 103kts
01-Aug-20 13:00 33.744651 -118.109400 66 3996ft 103kts
01-Aug-20 13:01 33.760143 -118.080338 50 4004ft 103kts
01-Aug-20 13:02 33.778349 -118.053430 50 4013ft 103kts
01-Aug-20 13:03 33.794807 -118.025055 58 4019ft 103kts
01-Aug-20 13:04 33.809540 -117.995538 61 3964ft 101kts
01-Aug-20 13:05 33.818127 -117.963578 78 3922ft 101kts
01-Aug-20 13:06 33.831406 -117.934819 61 3942ft 95kts
01-Aug-20 13:07 33.843980 -117.907961 61 4037ft 91kts
01-Aug-20 13:08 33.854509 -117.880726 66 4043ft 99kts
01-Aug-20 13:09 33.865158 -117.849762 66 3956ft 99kts
01-Aug-20 13:10 33.876272 -117.819315 62 3876ft 99kts
01-Aug-20 13:11 33.888551 -117.790546 62 3977ft 96kts
01-Aug-20 13:12 33.900717 -117.761847 65 4061ft 96kts
01-Aug-20 13:13 33.912103 -117.732575 62 4095ft 99kts
01-Aug-20 13:14 33.926767 -117.704571 17 3968ft 97kts
01-Aug-20 13:15 33.952565 -117.696268 30 3863ft 97kts
01-Aug-20 13:16 33.975684 -117.697289 297 3889ft 96kts
01-Aug-20 13:17 33.959115 -117.711833 175 3900ft 94kts
01-Aug-20 13:18 33.932892 -117.710151 193 3690ft 95kts
01-Aug-20 13:19 33.907633 -117.720396 200 3494ft 96kts
01-Aug-20 13:20 33.883382 -117.735720 213 3483ft 99kts
01-Aug-20 13:21 33.859764 -117.753257 204 3491ft 100kts
01-Aug-20 13:22 33.834545 -117.767340 200 3480ft 99kts
01-Aug-20 13:23 33.810290 -117.782739 213 3164ft 99kts
01-Aug-20 13:24 33.786098 -117.799108 207 2387ft 100kts
01-Aug-20 13:25 33.762676 -117.813373 207 1804ft 89kts
01-Aug-20 13:26 33.744454 -117.825109 208 1324ft 71kts
01-Aug-20 13:27 33.726666 -117.836219 206 1135ft 72kts
01-Aug-20 13:28 33.708847 -117.847688 208 697ft 73kts
01-Aug-20 13:29 33.691783 -117.858627 207 259ft 68kts
01-Aug-20 13:30 33.676340 -117.868400 209 60ft 27kts
01-Aug-20 13:31 33.674630 -117.868579 166 60ft 1kts
01-Aug-20 13:32 33.673302 -117.867014 212 60ft 7kts
01-Aug-20 13:33 33.671615 -117.867357 294 60ft 0kts
01-Aug-20 13:34 33.671615 -117.867357 294 60ft 0kts
01-Aug-20 13:35 33.671615 -117.867357 294 60ft 0kts
01-Aug-20 13:36 33.671643 -117.867452 283 60ft 0kts
01-Aug-20 13:38 33.671643 -117.867452 283 60ft 0kts
01-Aug-20 13:39 33.671669 -117.867566 299 60ft 0kts

Navigation Log

Ident Type
Flight plan parsing failed, navigation log unavailable